Time;durP1;ratioP1;P1;durP2;ratioP2;P2;SDS_P1;SDS_P2;PMS_P1;PMS_P2;Temp;Humidity;BMP_temperature;BMP_pressure;BME280_temperature;BME280_humidity;BME280_pressure;Samples;Min_cycle;Max_cycle;Signal;HPM_P1;HPM_P2
2023/12/16 00:00:25;;;;;;;;;;;;;;;25.85;32.37;96232.09;4960413;28;7262;-66
2023/12/16 00:02:51;;;;;;;;;;;;;;;25.86;32.58;96230.09;4941910;28;9081;-65
2023/12/16 00:05:17;;;;;;;;;;;;;;;25.86;32.00;96233.59;4946416;28;7180;-66
2023/12/16 00:07:43;;;;;;;;;;;;;;;25.85;31.94;96234.09;4957213;28;8938;-66
2023/12/16 00:10:23;;;;;;;;;;;;;;;25.83;31.69;96226.28;4926238;28;8974;-66
2023/12/16 00:13:04;;;;;;;;;;;;;;;25.83;32.52;96228.28;4958487;28;9196;-66
2023/12/16 00:15:42;;;;;;;;;;;;;;;25.84;32.40;96238.81;4945491;28;7222;-66
2023/12/16 00:18:08;;;;;;;;;;;;;;;25.83;32.00;96231.81;4955115;28;7733;-67
2023/12/16 00:20:46;;;;;;;;;;;;;;;25.86;31.91;96230.09;4971656;28;6992;-66
2023/12/16 00:23:15;;;;;;;;;;;;;;;25.82;32.44;96224.75;4978410;28;6857;-66
2023/12/16 00:25:41;;;;;;;;;;;;;;;25.84;32.28;96227.03;4980315;28;7212;-66
2023/12/16 00:28:14;;;;;;;;;;;;;;;25.81;32.40;96226.00;5056695;28;7245;-66
2023/12/16 00:30:49;;;;;;;;;;;;;;;25.85;32.27;96220.31;5051860;28;7401;-66
2023/12/16 00:33:16;;;;;;;;;;;;;;;25.83;32.29;96231.81;5058298;28;9032;-66
2023/12/16 00:36:09;;;;;;;;;;;;;;;25.84;33.06;96240.81;5061771;28;7250;-66
2023/12/16 00:38:37;;;;;;;;;;;;;;;25.85;32.81;96250.63;5031127;28;7218;-66
2023/12/16 00:41:04;;;;;;;;;;;;;;;25.83;32.51;96262.13;5036460;28;8691;-66
2023/12/16 00:43:32;;;;;;;;;;;;;;;25.83;32.73;96264.13;5012825;28;7012;-66
2023/12/16 00:45:59;;;;;;;;;;;;;;;25.86;32.73;96268.69;5032841;28;7013;-65
2023/12/16 00:48:25;;;;;;;;;;;;;;;25.84;32.31;96265.63;5031378;28;7238;-65
2023/12/16 00:50:52;;;;;;;;;;;;;;;25.83;33.07;96262.13;5028342;28;8931;-66
2023/12/16 00:53:18;;;;;;;;;;;;;;;25.81;33.12;96256.31;5015604;28;9422;-65
2023/12/16 00:55:44;;;;;;;;;;;;;;;25.85;32.69;96267.16;5013069;28;8101;-65
2023/12/16 00:58:10;;;;;;;;;;;;;;;25.83;32.80;96259.38;5014103;28;7143;-66
2023/12/16 01:00:36;;;;;;;;;;;;;;;25.86;32.76;96258.41;5014831;28;7124;-66
2023/12/16 01:03:03;;;;;;;;;;;;;;;25.88;32.63;96266.97;5035439;28;7232;-65
2023/12/16 01:05:30;;;;;;;;;;;;;;;25.86;32.57;96257.69;5022355;28;6991;-66
2023/12/16 01:08:07;;;;;;;;;;;;;;;25.84;33.17;96260.09;5021380;28;7485;-65
2023/12/16 01:10:36;;;;;;;;;;;;;;;25.82;32.64;96251.53;5015661;28;7403;-65
2023/12/16 01:13:04;;;;;;;;;;;;;;;25.84;33.35;96257.34;5031940;28;9130;-65
2023/12/16 01:15:35;;;;;;;;;;;;;;;25.83;33.38;96253.09;5038605;28;7263;-65
2023/12/16 01:18:01;;;;;;;;;;;;;;;25.84;32.51;96257.34;5043175;28;9076;-66
2023/12/16 01:20:37;;;;;;;;;;;;;;;25.87;32.85;96259.97;5055556;28;6973;-66
2023/12/16 01:23:06;;;;;;;;;;;;;;;25.87;33.33;96259.19;5053508;28;7237;-66
2023/12/16 01:25:36;;;;;;;;;;;;;;;25.85;33.02;96250.63;5059681;28;7249;-65
2023/12/16 01:28:05;;;;;;;;;;;;;;;25.88;33.05;96244.19;5046631;28;7085;-66
2023/12/16 01:30:38;;;;;;;;;;;;;;;25.88;33.30;96242.16;5070635;28;7637;-65
2023/12/16 01:33:04;;;;;;;;;;;;;;;25.90;32.90;96252.75;5054259;28;7243;-65
2023/12/16 01:35:30;;;;;;;;;;;;;;;25.89;33.00;96256.72;5059076;28;7212;-66
2023/12/16 01:37:56;;;;;;;;;;;;;;;25.88;33.40;96255.22;5062300;28;9236;-66
2023/12/16 01:40:24;;;;;;;;;;;;;;;25.90;33.17;96252.75;5060211;28;7444;-65
2023/12/16 01:42:51;;;;;;;;;;;;;;;25.88;32.80;96236.66;5051485;28;7260;-66
2023/12/16 01:45:37;;;;;;;;;;;;;;;25.87;33.27;96237.13;5075389;28;7054;-66
2023/12/16 01:48:13;;;;;;;;;;;;;;;25.86;32.93;96236.38;5046216;28;7083;-57
2023/12/16 01:50:46;;;;;;;;;;;;;;;25.86;33.21;96219.81;5080726;28;9465;-56
2023/12/16 01:53:13;;;;;;;;;;;;;;;25.84;33.06;96205.75;5066290;28;8590;-57
2023/12/16 01:55:39;;;;;;;;;;;;;;;25.86;32.94;96208.06;5054042;28;7066;-57
2023/12/16 01:58:08;;;;;;;;;;;;;;;25.86;33.33;96203.28;5070113;28;8228;-57
2023/12/16 02:00:53;;;;;;;;;;;;;;;25.83;33.80;96215.25;5048831;28;7204;-57
2023/12/16 02:03:30;;;;;;;;;;;;;;;25.86;33.80;96230.84;5057527;28;7396;-56
2023/12/16 02:06:13;;;;;;;;;;;;;;;25.82;33.80;96224.75;5070666;28;7215;-56
2023/12/16 02:08:40;;;;;;;;;;;;;;;25.81;34.29;96228.75;5043079;28;9282;-56
2023/12/16 02:11:19;;;;;;;;;;;;;;;25.81;33.86;96222.47;5052046;28;9180;-56
2023/12/16 02:13:51;;;;;;;;;;;;;;;25.84;33.16;96235.31;5056712;28;7227;-56
2023/12/16 02:16:17;;;;;;;;;;;;;;;25.82;33.20;96240.53;5053168;28;7096;-56
2023/12/16 02:18:50;;;;;;;;;;;;;;;25.84;33.80;96249.09;5043502;28;9401;-57
2023/12/16 02:21:21;;;;;;;;;;;;;;;25.76;33.30;96243.16;5077272;28;9182;-56
2023/12/16 02:24:06;;;;;;;;;;;;;;;25.80;33.91;96254.78;5073468;28;7238;-56
2023/12/16 02:26:35;;;;;;;;;;;;;;;25.83;33.50;96261.34;5060044;28;7418;-57
2023/12/16 02:29:05;;;;;;;;;;;;;;;25.82;33.89;96263.34;5055270;28;8839;-57
2023/12/16 02:31:31;;;;;;;;;;;;;;;25.80;34.01;96260.28;5049761;28;7266;-56
2023/12/16 02:33:59;;;;;;;;;;;;;;;25.83;33.40;96264.13;5046364;28;7387;-56
2023/12/16 02:36:25;;;;;;;;;;;;;;;25.81;34.07;96259.06;5064775;28;7186;-56
2023/12/16 02:38:55;;;;;;;;;;;;;;;25.82;33.60;96263.34;5046396;28;9109;-56
2023/12/16 02:41:26;;;;;;;;;;;;;;;25.82;33.96;96255.06;5035936;28;9382;-56
2023/12/16 02:43:52;;;;;;;;;;;;;;;25.83;33.76;96256.63;5044582;28;7830;-56
2023/12/16 02:46:19;;;;;;;;;;;;;;;25.81;33.54;96261.06;5025092;28;8440;-57
2023/12/16 02:48:47;;;;;;;;;;;;;;;25.79;33.48;96261.53;5052478;28;6940;-56
2023/12/16 02:51:19;;;;;;;;;;;;;;;25.79;34.30;96275.31;5070248;28;7870;-56
2023/12/16 02:53:51;;;;;;;;;;;;;;;25.78;34.51;96279.28;5049009;28;7219;-56
2023/12/16 02:56:46;;;;;;;;;;;;;;;25.78;34.04;96282.06;5056087;28;7217;-57
2023/12/16 02:59:13;;;;;;;;;;;;;;;25.77;34.16;96280.53;4985674;28;7182;-56
2023/12/16 03:01:41;;;;;;;;;;;;;;;25.77;33.56;96280.53;5009979;28;7079;-56
2023/12/16 03:04:21;;;;;;;;;;;;;;;25.79;33.47;96285.56;4994373;28;7805;-57
2023/12/16 03:07:19;;;;;;;;;;;;;;;25.80;33.54;96284.34;4998320;28;6975;-56
2023/12/16 03:09:49;;;;;;;;;;;;;;;25.76;33.70;96279.00;4996188;28;9090;-57
2023/12/16 03:12:15;;;;;;;;;;;;;;;25.74;34.16;96272.41;4999327;28;7958;-57
2023/12/16 03:14:41;;;;;;;;;;;;;;;25.77;33.91;96275.03;4989418;28;7231;-56
2023/12/16 03:17:09;;;;;;;;;;;;;;;25.79;34.03;96280.06;5014075;28;7504;-57
2023/12/16 03:19:35;;;;;;;;;;;;;;;25.79;33.99;96285.56;4999084;28;7222;-56
2023/12/16 03:22:04;;;;;;;;;;;;;;;25.79;34.21;96280.06;4995724;28;8542;-57
2023/12/16 03:24:35;;;;;;;;;;;;;;;25.74;33.97;96272.41;4997065;28;9038;-56
2023/12/16 03:27:02;;;;;;;;;;;;;;;25.76;34.17;96267.97;5010701;28;7241;-56
2023/12/16 03:29:31;;;;;;;;;;;;;;;25.76;34.63;96270.72;5014179;28;9104;-56
2023/12/16 03:31:57;;;;;;;;;;;;;;;25.71;33.82;96270.63;4993481;28;9122;-56
2023/12/16 03:34:26;;;;;;;;;;;;;;;25.71;34.47;96276.88;5002238;28;7206;-57
2023/12/16 03:36:52;;;;;;;;;;;;;;;25.69;34.06;96282.09;5050663;28;7063;-57
2023/12/16 03:39:32;;;;;;;;;;;;;;;25.73;34.30;96285.44;5067848;28;6992;-57
2023/12/16 03:41:59;;;;;;;;;;;;;;;25.72;34.44;96292.19;5040483;28;7229;-56
2023/12/16 03:44:26;;;;;;;;;;;;;;;25.71;34.23;96296.16;5053778;28;7238;-56
2023/12/16 03:46:52;;;;;;;;;;;;;;;25.71;33.71;96290.66;5056954;28;7255;-56
2023/12/16 03:49:23;;;;;;;;;;;;;;;25.70;34.27;96275.34;5051133;28;7260;-56
2023/12/16 03:52:00;;;;;;;;;;;;;;;25.67;34.01;96270.78;5052181;28;7389;-56
2023/12/16 03:54:46;;;;;;;;;;;;;;;25.71;34.57;96278.88;5058587;28;9067;-57
2023/12/16 03:57:14;;;;;;;;;;;;;;;25.72;34.54;96274.88;5040724;28;8316;-57
2023/12/16 03:59:40;;;;;;;;;;;;;;;25.74;34.08;96278.69;5061230;28;7033;-57
2023/12/16 04:02:14;;;;;;;;;;;;;;;25.75;34.40;96279.47;5045692;28;8670;-57
2023/12/16 04:04:44;;;;;;;;;;;;;;;25.71;34.43;96279.63;5048855;28;7250;-56
2023/12/16 04:07:11;;;;;;;;;;;;;;;25.70;33.94;96288.38;5068036;28;7220;-62
2023/12/16 04:09:44;;;;;;;;;;;;;;;25.70;34.37;96293.88;5057409;28;8983;-62
2023/12/16 04:12:23;;;;;;;;;;;;;;;25.70;34.55;96299.41;5047813;28;9501;-62
2023/12/16 04:14:56;;;;;;;;;;;;;;;25.72;34.66;96308.72;5056239;28;6869;-62
2023/12/16 04:17:24;;;;;;;;;;;;;;;25.72;33.85;96314.25;5050749;28;7184;-62
2023/12/16 04:19:56;;;;;;;;;;;;;;;25.72;34.72;96305.19;5065481;28;8680;-62
2023/12/16 04:22:25;;;;;;;;;;;;;;;25.70;33.94;96300.16;5056092;28;9456;-62
2023/12/16 04:24:57;;;;;;;;;;;;;;;25.70;34.63;96293.88;5055159;28;9552;-62
2023/12/16 04:27:27;;;;;;;;;;;;;;;25.70;34.11;96296.63;5069106;28;7179;-62
2023/12/16 04:29:55;;;;;;;;;;;;;;;25.68;34.24;96297.13;5054207;28;7601;-62
2023/12/16 04:32:30;;;;;;;;;;;;;;;25.66;34.18;96287.78;5069371;28;9049;-63
2023/12/16 04:34:57;;;;;;;;;;;;;;;25.66;33.80;96280.28;5075511;28;7657;-63
2023/12/16 04:37:24;;;;;;;;;;;;;;;25.66;34.27;96288.56;5061215;28;7279;-62
2023/12/16 04:39:52;;;;;;;;;;;;;;;25.67;34.20;96295.56;5046760;28;8860;-63
2023/12/16 04:42:18;;;;;;;;;;;;;;;25.67;34.02;96294.81;5055229;28;7141;-62
2023/12/16 04:44:44;;;;;;;;;;;;;;;25.62;34.43;96287.94;5054903;28;8829;-62
2023/12/16 04:47:19;;;;;;;;;;;;;;;25.61;34.07;96291.16;5053247;28;7269;-62
2023/12/16 04:49:46;;;;;;;;;;;;;;;25.59;34.29;96291.63;5055160;28;7347;-62
2023/12/16 04:52:32;;;;;;;;;;;;;;;25.62;34.34;96298.94;5060949;28;7414;-62
2023/12/16 04:55:04;;;;;;;;;;;;;;;25.62;34.48;96296.19;5041513;28;9754;-62
2023/12/16 04:57:35;;;;;;;;;;;;;;;25.59;34.66;96296.38;5061722;28;7637;-62
2023/12/16 05:00:01;;;;;;;;;;;;;;;25.57;34.43;96291.34;5044291;28;9098;-62
2023/12/16 05:02:54;;;;;;;;;;;;;;;25.60;34.49;96295.16;5051467;28;9461;-62
2023/12/16 05:05:59;;;;;;;;;;;;;;;25.56;35.24;96295.31;5046386;28;8837;-62
2023/12/16 05:08:55;;;;;;;;;;;;;;;25.60;34.51;96293.16;4974150;28;6999;-62
2023/12/16 05:11:37;;;;;;;;;;;;;;;25.56;35.06;96298.06;4974932;28;7254;-62
2023/12/16 05:14:33;;;;;;;;;;;;;;;25.56;35.14;96297.28;4977719;28;9156;-62
2023/12/16 05:17:12;;;;;;;;;;;;;;;25.51;34.67;96284.94;4933193;29;7551;-56
2023/12/16 05:19:40;;;;;;;;;;;;;;;25.54;35.22;96303.28;4922473;29;7175;-56
2023/12/16 05:22:21;;;;;;;;;;;;;;;25.52;34.82;96300.22;4933990;29;8992;-56
2023/12/16 05:24:48;;;;;;;;;;;;;;;25.55;34.50;96298.53;4932909;28;9709;-56
2023/12/16 05:27:16;;;;;;;;;;;;;;;25.59;34.51;96305.41;4934185;28;6995;-56
2023/12/16 05:29:52;;;;;;;;;;;;;;;25.61;34.41;96294.69;4932796;29;7007;-56
2023/12/16 05:32:27;;;;;;;;;;;;;;;25.60;34.50;96295.91;4932600;29;7276;-56
2023/12/16 05:34:54;;;;;;;;;;;;;;;25.63;34.67;96297.75;4926711;29;7069;-56
2023/12/16 05:37:22;;;;;;;;;;;;;;;25.64;34.86;96304.78;4932952;28;7094;-56
2023/12/16 05:39:48;;;;;;;;;;;;;;;25.66;34.23;96291.31;4933482;28;7482;-55
2023/12/16 05:42:15;;;;;;;;;;;;;;;25.63;34.11;96277.69;4944042;28;7369;-55
2023/12/16 05:44:54;;;;;;;;;;;;;;;25.63;34.34;96274.91;4976302;28;7375;-56
2023/12/16 05:47:41;;;;;;;;;;;;;;;25.61;34.21;96275.41;4974636;28;7880;-56
2023/12/16 05:50:09;;;;;;;;;;;;;;;25.60;34.64;96271.09;4984710;28;7141;-56
2023/12/16 05:52:43;;;;;;;;;;;;;;;25.62;35.02;96279.66;4989650;28;7188;-56
2023/12/16 05:55:28;;;;;;;;;;;;;;;25.58;34.90;96275.56;5058779;28;7504;-56
2023/12/16 05:57:54;;;;;;;;;;;;;;;25.60;34.99;96284.13;5045880;28;7031;-56
2023/12/16 06:00:39;;;;;;;;;;;;;;;25.58;34.84;96276.31;5040688;28;9086;-56
2023/12/16 06:03:17;;;;;;;;;;;;;;;25.59;34.96;96288.88;5068114;28;7215;-55
2023/12/16 06:06:01;;;;;;;;;;;;;;;25.57;34.86;96291.34;5063775;28;7584;-56
2023/12/16 06:08:39;;;;;;;;;;;;;;;25.58;35.13;96284.59;5055905;28;9176;-56
2023/12/16 06:11:23;;;;;;;;;;;;;;;25.56;34.70;96289.78;5056048;28;7058;-56
2023/12/16 06:13:52;;;;;;;;;;;;;;;25.54;35.22;96292.25;5065326;28;9147;-56
2023/12/16 06:16:24;;;;;;;;;;;;;;;25.55;35.26;96295.78;5047625;28;7597;-56
2023/12/16 06:19:02;;;;;;;;;;;;;;;25.56;34.61;96298.06;5059311;28;9029;-56
2023/12/16 06:21:38;;;;;;;;;;;;;;;25.60;34.65;96300.66;5048615;28;7801;-55
2023/12/16 06:24:05;;;;;;;;;;;;;;;25.56;35.04;96295.31;5055259;28;7241;-56
2023/12/16 06:26:33;;;;;;;;;;;;;;;25.57;34.70;96298.84;5072357;28;7275;-64
2023/12/16 06:29:30;;;;;;;;;;;;;;;25.60;34.82;96304.16;5076806;28;8698;-63
2023/12/16 06:32:12;;;;;;;;;;;;;;;25.61;34.97;96302.19;4994298;28;8748;-63
2023/12/16 06:34:54;;;;;;;;;;;;;;;25.59;34.50;96305.41;4997137;28;9128;-64
2023/12/16 06:37:49;;;;;;;;;;;;;;;25.61;35.65;96304.94;4992834;28;9227;-64
2023/12/16 06:40:17;;;;;;;;;;;;;;;25.57;34.70;96302.34;4937599;28;7405;-64
2023/12/16 06:42:54;;;;;;;;;;;;;;;25.61;34.89;96302.94;4934128;28;7203;-64
2023/12/16 06:45:21;;;;;;;;;;;;;;;25.60;35.36;96295.91;4933036;28;9570;-64
2023/12/16 06:48:04;;;;;;;;;;;;;;;25.63;34.78;96296.97;4934091;28;6998;-64
2023/12/16 06:50:35;;;;;;;;;;;;;;;25.66;35.63;96296.81;4922342;29;7034;-64
2023/12/16 06:53:00;;;;;;;;;;;;;;;25.67;34.95;96287.31;4937550;28;7241;-64
2023/12/16 06:55:26;;;;;;;;;;;;;;;25.68;34.91;96296.34;4914958;29;7194;-64
2023/12/16 06:57:52;;;;;;;;;;;;;;;25.70;35.06;96296.63;4936355;28;7214;-64
2023/12/16 07:00:20;;;;;;;;;;;;;;;25.67;34.61;96292.03;4926228;28;7046;-63
2023/12/16 07:02:54;;;;;;;;;;;;;;;25.66;35.15;96293.28;4937579;28;7234;-62
2023/12/16 07:05:23;;;;;;;;;;;;;;;25.62;34.70;96296.19;4945586;28;7324;-62
2023/12/16 07:07:49;;;;;;;;;;;;;;;25.63;34.70;96292.22;4952082;28;8745;-62
2023/12/16 07:10:22;;;;;;;;;;;;;;;25.52;28.70;96288.44;4976500;28;7242;-62
2023/12/16 07:12:56;;;;;;;;;;;;;;;25.25;27.35;96297.53;4961758;28;9587;-62
2023/12/16 07:15:22;;;;;;;;;;;;;;;25.17;28.66;96297.09;4979016;28;7235;-62
2023/12/16 07:17:49;;;;;;;;;;;;;;;25.09;26.83;96301.38;5049739;28;7072;-62
2023/12/16 07:20:16;;;;;;;;;;;;;;;25.11;27.98;96309.19;5056221;28;7282;-62
2023/12/16 07:22:48;;;;;;;;;;;;;;;25.10;26.62;96318.69;5041097;28;6978;-63
2023/12/16 07:25:16;;;;;;;;;;;;;;;25.13;28.26;96321.25;5049622;28;9113;-64
2023/12/16 07:27:46;;;;;;;;;;;;;;;25.19;28.63;96327.66;5043730;28;7047;-64
2023/12/16 07:30:16;;;;;;;;;;;;;;;25.26;28.98;96332.09;5065615;28;9154;-64
2023/12/16 07:32:42;;;;;;;;;;;;;;;25.27;29.05;96330.88;5065738;28;7312;-64
2023/12/16 07:35:15;;;;;;;;;;;;;;;25.31;28.85;96345.25;5044038;28;7171;-64
2023/12/16 07:37:50;;;;;;;;;;;;;;;25.34;28.65;96339.56;5071181;28;7293;-61
2023/12/16 07:40:18;;;;;;;;;;;;;;;25.39;28.70;96340.94;5044934;28;7016;-61
2023/12/16 07:42:44;;;;;;;;;;;;;;;25.38;29.05;96340.19;5050562;28;6984;-61
2023/12/16 07:45:10;;;;;;;;;;;;;;;25.40;29.06;96334.22;5060323;28;9177;-61
2023/12/16 07:47:36;;;;;;;;;;;;;;;25.41;29.02;96332.97;5057224;28;7148;-61
2023/12/16 07:50:06;;;;;;;;;;;;;;;25.44;29.36;96343.13;5058558;28;7213;-61
2023/12/16 07:52:33;;;;;;;;;;;;;;;25.43;29.63;96330.56;5042326;28;7030;-61
2023/12/16 07:55:03;;;;;;;;;;;;;;;25.44;29.29;96332.09;5071262;28;9183;-61
2023/12/16 07:57:32;;;;;;;;;;;;;;;25.41;30.19;96327.47;5052222;28;7249;-61
2023/12/16 08:00:00;;;;;;;;;;;;;;;25.40;30.11;96334.22;5057860;28;9218;-61
2023/12/16 08:02:27;;;;;;;;;;;;;;;25.40;30.14;96331.47;5055652;28;7179;-61
2023/12/16 08:04:53;;;;;;;;;;;;;;;25.41;30.39;96338.50;5078545;28;7228;-62
2023/12/16 08:07:20;;;;;;;;;;;;;;;25.40;30.22;96334.22;5051836;28;7035;-61
2023/12/16 08:09:52;;;;;;;;;;;;;;;25.38;30.60;96337.41;5051902;28;7165;-61
2023/12/16 08:12:28;;;;;;;;;;;;;;;25.41;30.16;96349.50;5062628;28;6987;-61
2023/12/16 08:14:55;;;;;;;;;;;;;;;25.41;30.79;96350.28;5061728;28;7228;-61
2023/12/16 08:17:23;;;;;;;;;;;;;;;25.45;30.47;96343.88;5045964;28;7050;-61
2023/12/16 08:19:51;;;;;;;;;;;;;;;25.47;30.34;96342.16;5056382;28;7265;-61
2023/12/16 08:22:17;;;;;;;;;;;;;;;25.43;30.57;96341.56;5064479;28;7059;-61
2023/12/16 08:24:43;;;;;;;;;;;;;;;25.47;31.39;96338.69;5055453;28;7080;-61
2023/12/16 08:27:14;;;;;;;;;;;;;;;25.47;31.00;96328.41;5068388;28;9368;-61
2023/12/16 08:29:40;;;;;;;;;;;;;;;25.47;31.51;96324.91;5044418;28;8408;-61
2023/12/16 08:32:07;;;;;;;;;;;;;;;25.43;31.56;96325.81;5052410;28;7439;-61
2023/12/16 08:34:33;;;;;;;;;;;;;;;25.47;31.26;96330.41;5064494;28;7145;-61
2023/12/16 08:37:00;;;;;;;;;;;;;;;25.47;31.74;96327.66;5038931;28;9316;-61
2023/12/16 08:39:29;;;;;;;;;;;;;;;25.48;31.27;96327.19;5053213;28;9384;-61
2023/12/16 08:41:59;;;;;;;;;;;;;;;25.47;31.36;96331.16;5056562;28;6875;-61
2023/12/16 08:44:25;;;;;;;;;;;;;;;25.49;31.22;96328.69;5074246;28;6995;-61
2023/12/16 08:46:51;;;;;;;;;;;;;;;25.47;31.82;96331.16;5057379;28;9157;-56
2023/12/16 08:49:17;;;;;;;;;;;;;;;25.45;31.76;96341.13;5054533;28;7674;-56
2023/12/16 08:51:43;;;;;;;;;;;;;;;25.50;32.20;96337.72;5054595;28;7405;-57
2023/12/16 08:54:09;;;;;;;;;;;;;;;25.52;32.42;96351.81;5065981;28;8601;-56
2023/12/16 08:56:37;;;;;;;;;;;;;;;25.53;32.55;96351.34;5057421;28;8763;-56
2023/12/16 08:59:03;;;;;;;;;;;;;;;25.52;32.46;96355.34;5061038;28;7178;-56
2023/12/16 09:01:30;;;;;;;;;;;;;;;25.49;32.38;96350.72;5086544;28;7178;-56
2023/12/16 09:03:58;;;;;;;;;;;;;;;25.51;31.94;96359.31;5069510;28;7333;-56
2023/12/16 09:06:27;;;;;;;;;;;;;;;25.56;32.87;96366.19;5076817;28;6931;-56
2023/12/16 09:08:53;;;;;;;;;;;;;;;25.53;32.15;96373.41;5077354;28;7265;-56
2023/12/16 09:11:21;;;;;;;;;;;;;;;25.55;33.04;96375.69;5071384;28;7242;-56
2023/12/16 09:13:49;;;;;;;;;;;;;;;25.56;32.83;96377.97;5074827;28;7216;-56
2023/12/16 09:16:16;;;;;;;;;;;;;;;25.58;33.37;96374.78;5060872;28;9098;-56
2023/12/16 09:18:42;;;;;;;;;;;;;;;25.59;33.25;96379.81;5057919;28;9299;-56
2023/12/16 09:21:08;;;;;;;;;;;;;;;25.58;33.14;96378.28;5067079;28;8714;-56
2023/12/16 09:23:38;;;;;;;;;;;;;;;25.60;33.32;96384.06;5072432;28;7183;-56
2023/12/16 09:26:05;;;;;;;;;;;;;;;25.61;33.17;96385.63;5070583;28;8831;-56
2023/12/16 09:28:32;;;;;;;;;;;;;;;25.57;33.42;96381.50;5067220;28;7510;-56
2023/12/16 09:30:59;;;;;;;;;;;;;;;25.60;33.21;96397.13;5083648;28;7095;-56
2023/12/16 09:33:25;;;;;;;;;;;;;;;25.57;34.01;96393.28;5067906;28;7322;-56
2023/12/16 09:35:56;;;;;;;;;;;;;;;25.58;33.74;96392.03;5082580;28;7271;-56
2023/12/16 09:38:27;;;;;;;;;;;;;;;25.60;33.70;96399.88;5076352;28;7231;-56
2023/12/16 09:40:54;;;;;;;;;;;;;;;25.61;33.28;96396.66;5069031;28;7283;-56
2023/12/16 09:43:22;;;;;;;;;;;;;;;25.58;33.75;96392.03;5069458;28;7246;-56
2023/12/16 09:45:50;;;;;;;;;;;;;;;25.62;33.38;96391.91;5072521;28;7175;-57
2023/12/16 09:48:23;;;;;;;;;;;;;;;25.60;33.86;96397.13;5070754;28;7699;-56
2023/12/16 09:50:59;;;;;;;;;;;;;;;25.60;33.97;96395.09;5070737;28;6976;-57
2023/12/16 09:53:27;;;;;;;;;;;;;;;25.61;33.41;96401.38;5069759;28;9111;-57
2023/12/16 09:55:55;;;;;;;;;;;;;;;25.62;33.99;96398.16;5075079;28;7054;-65
2023/12/16 09:58:23;;;;;;;;;;;;;;;25.65;33.27;96402.75;5073157;28;7461;-65
2023/12/16 10:00:54;;;;;;;;;;;;;;;25.66;33.39;96398.78;5072814;28;7314;-66
2023/12/16 10:03:29;;;;;;;;;;;;;;;25.67;33.94;96389.28;5067731;28;7237;-65
2023/12/16 10:05:55;;;;;;;;;;;;;;;25.65;33.76;96388.97;5070816;28;7324;-65
2023/12/16 10:08:22;;;;;;;;;;;;;;;25.66;33.83;96387.75;5068165;28;7158;-65
2023/12/16 10:11:08;;;;;;;;;;;;;;;25.61;33.56;96387.59;5073736;28;7000;-65
2023/12/16 10:14:03;;;;;;;;;;;;;;;25.60;33.21;96378.56;5073521;28;7012;-65
2023/12/16 10:16:29;;;;;;;;;;;;;;;25.60;33.41;96384.06;5060042;28;7240;-65
2023/12/16 10:19:00;;;;;;;;;;;;;;;25.57;33.51;96376.75;5070387;28;7494;-65
2023/12/16 10:21:32;;;;;;;;;;;;;;;25.55;34.13;96387.47;5084516;28;6982;-65
2023/12/16 10:24:01;;;;;;;;;;;;;;;25.53;33.76;96384.44;5064352;28;9161;-65
2023/12/16 10:26:42;;;;;;;;;;;;;;;25.53;34.77;96384.44;5070843;28;9148;-65
2023/12/16 10:29:10;;;;;;;;;;;;;;;25.51;34.94;96386.88;5074018;28;7359;-65
2023/12/16 10:31:39;;;;;;;;;;;;;;;25.51;34.75;96394.38;5069620;28;9156;-65
2023/12/16 10:34:16;;;;;;;;;;;;;;;25.50;34.17;96390.84;5068160;28;9435;-65
2023/12/16 10:36:45;;;;;;;;;;;;;;;25.52;34.41;96387.63;5072821;28;7074;-65
2023/12/16 10:39:19;;;;;;;;;;;;;;;25.54;34.87;96388.69;5079701;28;6985;-65
2023/12/16 10:41:47;;;;;;;;;;;;;;;25.55;34.89;96395.75;5054506;28;7414;-66
2023/12/16 10:44:21;;;;;;;;;;;;;;;25.57;34.72;96385.03;5067996;28;7473;-65
2023/12/16 10:46:55;;;;;;;;;;;;;;;25.56;35.54;96385.47;5065498;28;7073;-66
2023/12/16 10:49:45;;;;;;;;;;;;;;;25.52;35.51;96382.13;5066684;28;7217;-65
2023/12/16 10:52:48;;;;;;;;;;;;;;;25.58;35.30;96391.31;5066207;28;7344;-65
2023/12/16 10:55:43;;;;;;;;;;;;;;;25.57;35.72;96390.53;5064237;28;7430;-65
2023/12/16 10:58:38;;;;;;;;;;;;;;;25.59;36.48;96390.06;5068664;28;9177;-65
2023/12/16 11:01:29;;;;;;;;;;;;;;;25.55;35.44;96384.72;5067820;28;9257;-66
2023/12/16 11:04:09;;;;;;;;;;;;;;;25.55;35.71;96384.72;5069111;28;7189;-66
2023/12/16 11:06:49;;;;;;;;;;;;;;;25.54;36.22;96372.16;5067470;28;7480;-62
2023/12/16 11:09:24;;;;;;;;;;;;;;;25.58;35.30;96372.00;5058097;28;7162;-61
2023/12/16 11:11:56;;;;;;;;;;;;;;;25.61;35.39;96382.88;5069152;28;6996;-61
2023/12/16 11:14:35;;;;;;;;;;;;;;;25.61;35.44;96369.09;5068611;28;7477;-61
2023/12/16 11:17:09;;;;;;;;;;;;;;;25.64;36.01;96378.41;5078984;28;7217;-61
2023/12/16 11:19:55;;;;;;;;;;;;;;;25.68;35.21;96374.28;5064706;28;7058;-61
2023/12/16 11:22:25;;;;;;;;;;;;;;;25.70;35.50;96380.09;5066349;28;7211;-61
2023/12/16 11:24:52;;;;;;;;;;;;;;;25.74;35.68;96369.66;5066949;28;9435;-61
2023/12/16 11:27:21;;;;;;;;;;;;;;;25.77;35.40;96368.75;5073577;28;7641;-61
2023/12/16 11:29:47;;;;;;;;;;;;;;;25.74;36.55;96361.41;5071663;28;7192;-61
2023/12/16 11:32:13;;;;;;;;;;;;;;;25.68;35.96;96363.25;5074709;28;9120;-61
2023/12/16 11:35:09;;;;;;;;;;;;;;;25.70;35.97;96357.28;5065979;28;7033;-61
2023/12/16 11:37:44;;;;;;;;;;;;;;;25.75;36.13;96348.38;5077811;28;9071;-61
2023/12/16 11:40:42;;;;;;;;;;;;;;;25.79;35.32;96348.97;5079213;28;7242;-61
2023/12/16 11:43:15;;;;;;;;;;;;;;;25.78;35.99;96350.97;5074180;28;7240;-61
2023/12/16 11:45:47;;;;;;;;;;;;;;;25.81;35.74;96344.53;5077494;28;7242;-61
2023/12/16 11:48:16;;;;;;;;;;;;;;;25.83;35.90;96335.78;5081952;28;9246;-61
2023/12/16 11:50:46;;;;;;;;;;;;;;;25.85;36.31;96339.59;5073689;28;7447;-61
2023/12/16 11:53:19;;;;;;;;;;;;;;;25.86;36.18;96330.09;5071905;28;7141;-61
2023/12/16 11:55:47;;;;;;;;;;;;;;;25.87;36.14;96334.38;5072953;28;7031;-61
2023/12/16 11:58:21;;;;;;;;;;;;;;;25.84;36.00;96329.03;5071281;28;7232;-61
2023/12/16 12:00:50;;;;;;;;;;;;;;;25.89;36.12;96325.66;5075851;28;9280;-61
2023/12/16 12:03:17;;;;;;;;;;;;;;;25.86;36.24;96327.34;5063385;28;7242;-61
2023/12/16 12:05:46;;;;;;;;;;;;;;;25.92;35.87;96324.72;5068645;28;7241;-61
2023/12/16 12:08:14;;;;;;;;;;;;;;;25.97;35.78;96319.31;5064765;28;7229;-61
2023/12/16 12:10:40;;;;;;;;;;;;;;;25.93;35.81;96310.47;5066412;28;7245;-62
2023/12/16 12:13:06;;;;;;;;;;;;;;;25.92;35.87;96308.94;5068310;28;9128;-62
2023/12/16 12:15:35;;;;;;;;;;;;;;;25.94;36.12;96314.00;5066470;28;7240;-62
2023/12/16 12:18:08;;;;;;;;;;;;;;;25.99;35.48;96308.59;5076371;28;9206;-61
2023/12/16 12:20:36;;;;;;;;;;;;;;;25.99;36.04;96302.31;5071982;28;7253;-61
2023/12/16 12:23:03;;;;;;;;;;;;;;;25.99;35.77;96307.84;5072204;28;8772;-61
2023/12/16 12:26:00;;;;;;;;;;;;;;;25.96;36.53;96294.97;5089542;28;7003;-61
2023/12/16 12:28:29;;;;;;;;;;;;;;;25.93;36.64;96296.69;4990255;28;7207;-62
2023/12/16 12:31:16;;;;;;;;;;;;;;;25.94;36.37;96294.69;4984919;28;9122;-61
2023/12/16 12:33:52;;;;;;;;;;;;;;;25.89;36.53;96293.34;4991337;28;7263;-61
2023/12/16 12:36:18;;;;;;;;;;;;;;;25.90;36.14;96292.09;4974282;28;9528;-61
2023/12/16 12:38:54;;;;;;;;;;;;;;;25.93;36.20;96290.38;4974383;28;7004;-62
2023/12/16 12:41:21;;;;;;;;;;;;;;;25.89;36.13;96285.06;4974924;28;9390;-61
2023/12/16 12:43:58;;;;;;;;;;;;;;;25.90;36.10;96274.81;4986759;28;7237;-61
2023/12/16 12:46:25;;;;;;;;;;;;;;;25.88;36.29;96282.78;4986055;28;7229;-61
2023/12/16 12:48:59;;;;;;;;;;;;;;;25.89;36.44;96274.03;4983243;28;7043;-61
2023/12/16 12:51:28;;;;;;;;;;;;;;;25.90;36.31;96270.03;4976428;28;9204;-61
2023/12/16 12:53:58;;;;;;;;;;;;;;;25.93;36.75;96263.59;4973238;28;7144;-61
2023/12/16 12:56:24;;;;;;;;;;;;;;;25.95;36.80;96269.41;4982347;28;7510;-61
2023/12/16 12:58:50;;;;;;;;;;;;;;;25.95;36.42;96268.63;4968524;28;7556;-61
2023/12/16 13:01:26;;;;;;;;;;;;;;;25.98;36.25;96265.72;4983705;28;7116;-61
2023/12/16 13:04:00;;;;;;;;;;;;;;;25.98;36.52;96268.47;4984279;28;7300;-61
2023/12/16 13:06:26;;;;;;;;;;;;;;;25.99;36.99;96260.97;5068542;28;6977;-61
2023/12/16 13:08:54;;;;;;;;;;;;;;;26.03;37.03;96261.56;5071899;28;7115;-61
2023/12/16 13:11:23;;;;;;;;;;;;;;;26.03;37.18;96253.28;5070599;28;7206;-61
2023/12/16 13:14:02;;;;;;;;;;;;;;;25.99;36.91;96250.69;5072106;28;8657;-61
2023/12/16 13:16:28;;;;;;;;;;;;;;;25.97;36.99;96250.38;5070003;28;8028;-62
2023/12/16 13:18:56;;;;;;;;;;;;;;;25.95;36.57;96255.59;5075791;28;7154;-61
2023/12/16 13:21:40;;;;;;;;;;;;;;;25.93;37.07;96252.56;5063218;28;9572;-62